Denver, CO (80261)

4:47 PM MDT on March 24, 2017 (GMT -0600)
Capitol Hill | | Change Station

Elev 5331 ft 39.73 °N, 104.98 °W | Updated 7 seconds ago

Mostly Cloudy
Mostly Cloudy
52.9 °F
Feels Like 52.9 °F
N
0.0
Wind Variable Wind from NW
Gusts 0.0 mph

Today
High -- | Low -- °F
--% Chance of Precip.
Yesterday
High -- | Low -- °F
Precip. -- in
Pressure 30.10 in
Visibility 10.0 miles
Clouds Few 3000 ft
Mostly Cloudy 7000 ft
Dew Point 31 °F
Humidity 43%
Rainfall 0.63 in
Snow Depth Not available.
6:56 AM 7:16 PM
Waning Crescent, 12% visible
METAR KBKF 242158Z 04013KT 10SM FEW030 BKN070 11/01 A3013 RMK AO2A SLP192 T01060012
Pressure 30.10 in
Visibility 10.0 miles
Clouds Few 3000 ft
Mostly Cloudy 7000 ft
Dew Point 31 °F
Humidity 43%
Rainfall 0.63 in
Snow Depth Not available.
6:56 AM 7:16 PM
Waning Crescent, 12% visible
METAR KBKF 242158Z 04013KT 10SM FEW030 BKN070 11/01 A3013 RMK AO2A SLP192 T01060012

Get Severe Weather Alerts

Thanks for signing up!

Be on the lookout for a verification email in your inbox.

You'll start receiving the daily forecast at 8 AM.

×

10-Day Weather Forecast

Almanac

Astronomy

Mar. 24, 2017 Rise Set
Actual Time
Civil Twilight
Nautical Twilight
Astronomical Twilight
Moon
Length of Visible Light
Length of Day
Tomorrow will be .
, % of the Moon is Illuminated

Today's Extremes

State Highs State Lows

Community

WunderPhotos

Upload Photos

1,962,540 photos uploaded!

WunderBlog® & News

Nearby

Air Quality

  Air Quality AQ Index Pollutant
Not available.

Snow Depth

Station Depth Elevation

Earthquake Activity

City Distance Mag. Time & Date
Minimum magnitude displayed is 2.5.

Earthquake Activity

City Distance Mag. Time & Date
Minimum magnitude displayed is 2.5.

Coastal Water Temperatures

Place Temperature

Stations

Nearby Weather Stations

Station Location Temp. Windchill Dew Point Humidity Wind Precip. Elev Updated Type
                   

Watches & Warnings

There are currently no watches in effect.